Flight Track Log - Related Links

Times and Time Zones

All times are in EDT time to prevent confusion due to time zone crossing. See the RPA3321 flight status page for this flight to view local times or setup timezone preferences in your user account.

Time Position Orientation Groundspeed Altitude Reporting Facility
EDT Latitude Longitude Course Direction KTS MPH feet Rate Location/Type
Wed 05:40:46 AM 42.7653 -73.8089 118° Southeast 143 165 1,600  Level Boston Center
Wed 05:41:16 AM 42.7817 -73.8292 318° Northwest 161 185 2,500 2,719 Climbing Boston Center
Wed 05:42:54 AM 42.8178 -73.9489 292° West 240 276 7,400 2,848 Climbing Boston Center
Wed 05:43:54 AM 42.8164 -74.0364 269° West 240 276 10,000 2,550 Climbing Boston Center
Wed 05:44:54 AM 42.7878 -74.1489 251° West 270 311 12,500 2,550 Climbing Boston Center
Wed 05:45:00 AM 42.2661 -74.2287 169° South  Level Estimated
Wed 05:45:54 AM 42.7158 -74.2092 212° Southwest 284 327 15,100  Level Boston Center
Wed 05:46:00 AM 42.2205 -74.1145 118° Southeast  Level FlightAware Approximate
Wed 05:46:54 AM 42.6222 -74.2036 177° South 308 354 17,300  Level Boston Center
Wed 05:47:54 AM 42.5478 -74.1564 155° Southeast 321 369 18,800 1,900 Climbing Boston Center
Wed 05:48:54 AM 42.4467 -74.0889 154° Southeast 340 391 21,100 2,050 Climbing Boston Center
Wed 05:49:54 AM 42.3519 -74.0189 151° Southeast 362 417 22,900 1,750 Climbing Boston Center
Wed 05:50:54 AM 42.2550 -73.9492 152° Southeast 386 444 24,600 1,600 Climbing Boston Center
Wed 05:51:54 AM 42.1536 -73.8881 156° South 399 459 26,100 1,550 Climbing Boston Center
Wed 05:52:54 AM 42.0475 -73.8769 176° South 384 442 27,700 1,600 Climbing Boston Center
Wed 05:53:54 AM 41.9392 -73.8692 177° South 384 442 29,300 1,150 Climbing Boston Center
Wed 05:54:54 AM 41.8331 -73.8583 176° South 389 448 30,000 225 Climbing Boston Center
Wed 05:57:01 AM 41.6153 -73.8372 176° South 364 419 30,000  Level New York Center
Wed 05:58:02 AM 41.5303 -73.8278 175° South 355 409 30,000  Level New York Center
Wed 05:59:03 AM 41.4375 -73.8650 197° South 343 395 30,000  Level New York Center
Wed 06:00:01 AM 41.3608 -73.9306 213° Southwest 332 382 30,000  Level New York Center
Wed 06:01:00 AM 41.2819 -73.9986 213° Southwest 332 382 30,000  Level New York Center
Wed 06:02:01 AM 41.2031 -74.0636 212° Southwest 337 388 30,000  Level New York Center
Wed 06:03:00 AM 41.1264 -74.1289 213° Southwest 337 388 30,000  Level New York Center
Wed 06:04:02 AM 41.0389 -74.1961 210° Southwest 337 388 30,000  Level New York Center
Wed 06:05:03 AM 40.9622 -74.2608 213° Southwest 332 382 30,000  Level New York Center
Wed 06:06:02 AM 40.8831 -74.3253 212° Southwest 332 382 30,000 -872 Level New York Center
Wed 06:07:00 AM 40.8147 -74.3794 211° Southwest 337 388 28,300 -1,008 Descending New York Center
Wed 06:08:01 AM 40.7364 -74.4903 227° Southwest 344 396 28,000 -149 Descending New York Center
Wed 06:09:01 AM 40.6769 -74.5883 231° Southwest 344 396 28,000  Level New York Center
Wed 06:10:02 AM 40.6153 -74.6886 231° Southwest 349 402 28,000  Level New York Center
Wed 06:11:00 AM 40.5536 -74.7889 231° Southwest 359 413 28,000  Level New York Center
Wed 06:12:02 AM 40.4858 -74.8806 226° Southwest 359 413 28,000  Level New York Center
Wed 06:13:02 AM 40.4200 -74.9747 227° Southwest 359 413 28,000  Level New York Center
Wed 06:14:02 AM 40.3519 -75.0686 226° Southwest 359 413 28,000 -908 Level New York Center
Wed 06:15:01 AM 40.2861 -75.1625 227° Southwest 359 413 26,200 -1,815 Descending New York Center
Wed 06:16:01 AM 40.2200 -75.2533 226° Southwest 359 413 24,400 -1,770 Descending New York Center
Wed 06:17:03 AM 40.1606 -75.3419 229° Southwest 354 407 22,600 -1,200 Descending New York Center
Wed 06:18:01 AM 40.1011 -75.4222 226° Southwest 354 407 22,000 -305 Descending New York Center
Wed 06:19:01 AM 40.0392 -75.5075 227° Southwest 343 395 22,000  Level New York Center
Wed 06:20:03 AM 39.9772 -75.6008 229° Southwest 338 389 22,000  Level New York Center
Wed 06:21:03 AM 39.9169 -75.6942 230° Southwest 344 396 22,000  Level New York Center
Wed 06:22:00 AM 39.8589 -75.7875 231° Southwest 344 396 22,000  Level New York Center
Wed 06:23:02 AM 39.8008 -75.8778 230° Southwest 344 396 22,000 -1,123 Level New York Center
Wed 06:24:51 AM 39.6833 -76.0500 228° Southwest 326 375 18,800 -1,740 Descending Potomac TRACON
Wed 06:25:51 AM 39.6167 -76.1500 229° Southwest 324 373 17,100 -1,700 Descending Potomac TRACON
Wed 06:26:51 AM 39.5667 -76.2333 232° Southwest 320 368 15,400 -1,700 Descending Potomac TRACON
Wed 06:27:51 AM 39.5167 -76.3167 232° Southwest 318 366 13,700 -1,700 Descending Potomac TRACON
Wed 06:28:51 AM 39.4500 -76.4167 229° Southwest 310 357 12,000 -1,211 Descending Potomac TRACON
Wed 06:29:45 AM 39.4000 -76.4667 218° Southwest 311 358 11,400 -737 Descending Potomac TRACON
Wed 06:30:45 AM 39.3167 -76.5333 212° Southwest 311 358 10,600 -700 Descending Potomac TRACON
Wed 06:31:45 AM 39.2500 -76.5833 210° Southwest 304 350 10,000 -316 Descending Potomac TRACON
Wed 06:32:39 AM 39.2000 -76.6500 226° Southwest 288 331 10,000  Level Potomac TRACON
Wed 06:33:39 AM 39.1333 -76.7000 210° Southwest 284 327 10,000  Level Potomac TRACON
Wed 06:34:39 AM 39.0667 -76.7833 224° Southwest 284 327 10,000 -722 Level Potomac TRACON
Wed 06:35:27 AM 39.0333 -76.8333 229° Southwest 282 325 8,700 -1,842 Descending Potomac TRACON
Wed 06:36:33 AM 38.9667 -76.9000 218° Southwest 282 325 6,500 -1,350 Descending Potomac TRACON
Wed 06:37:27 AM 38.9000 -76.9500 210° Southwest 282 325 6,000 -263 Descending Potomac TRACON
Wed 06:38:27 AM 38.8333 -76.9500 180° South 294 338 6,000 -105 Level Potomac TRACON
Wed 06:39:21 AM 38.7500 -76.9500 180° South 279 321 5,800 -947 Descending Potomac TRACON
Wed 06:40:21 AM 38.6833 -76.9500 180° South 278 320 4,200 -1,350 Descending Potomac TRACON
Wed 06:41:21 AM 38.6667 -77.0333 256° West 243 280 3,100 -789 Descending Potomac TRACON
Wed 06:42:15 AM 38.7000 -77.0500 339° North 175 201 2,700 -444 Descending Potomac TRACON

Login

Don't have an account? Register now (free) for customized features, flight alerts, and more!